Time;durP1;ratioP1;P1;durP2;ratioP2;P2;SDS_P1;SDS_P2;PMS_P1;PMS_P2;Temp;Humidity;BMP_temperature;BMP_pressure;BME280_temperature;BME280_humidity;BME280_pressure;Samples;Min_cycle;Max_cycle;Signal;HPM_P1;HPM_P2
2022/09/19 00:00:00;;;;;;;;;;;;;;;10.67;62.88;100409.66;4962425;28;19918;-55
2022/09/19 00:02:25;;;;;;;;;;;;;;;10.65;63.09;100408.91;4960921;28;19948;-55
2022/09/19 00:04:51;;;;;;;;;;;;;;;10.64;62.92;100410.72;4964936;28;19926;-52
2022/09/19 00:07:16;;;;;;;;;;;;;;;10.64;63.11;100417.75;4964682;28;19930;-53
2022/09/19 00:09:41;;;;;;;;;;;;;;;10.61;63.16;100416.16;4964158;28;20310;-53
2022/09/19 00:12:06;;;;;;;;;;;;;;;10.60;62.99;100419.75;4965041;28;19922;-52
2022/09/19 00:14:33;;;;;;;;;;;;;;;10.60;63.36;100419.75;4969131;28;20057;-53
2022/09/19 00:17:00;;;;;;;;;;;;;;;10.61;63.20;100426.69;4961609;28;19918;-52
2022/09/19 00:19:26;;;;;;;;;;;;;;;10.61;63.12;100423.19;4960974;28;19918;-53
2022/09/19 00:21:53;;;;;;;;;;;;;;;10.60;63.22;100419.75;4964482;28;19922;-53
2022/09/19 00:27:04;;;;;;;;;;;;;;;10.61;63.16;100426.69;4962370;28;19925;-53
2022/09/19 00:29:31;;;;;;;;;;;;;;;10.61;63.13;100425.84;4965107;28;19977;-54
2022/09/19 00:31:56;;;;;;;;;;;;;;;10.58;63.16;100419.00;4963841;28;20394;-54
2022/09/19 00:34:22;;;;;;;;;;;;;;;10.57;63.24;100417.28;4962734;28;19937;-54
2022/09/19 00:36:47;;;;;;;;;;;;;;;10.56;63.25;100420.88;4959806;28;19969;-52
2022/09/19 00:39:14;;;;;;;;;;;;;;;10.54;63.08;100432.44;4962563;28;19936;-53
2022/09/19 00:41:40;;;;;;;;;;;;;;;10.52;63.16;100425.47;4960375;28;20020;-52
2022/09/19 00:44:26;;;;;;;;;;;;;;;10.51;63.33;100428.22;4968610;28;19964;-53
2022/09/19 00:46:54;;;;;;;;;;;;;;;10.49;63.34;100422.22;4954560;28;20318;-53
2022/09/19 00:49:20;;;;;;;;;;;;;;;10.48;63.24;100431.03;4965140;28;19937;-53
2022/09/19 00:51:48;;;;;;;;;;;;;;;10.48;63.21;100436.31;4965378;28;19966;-53
2022/09/19 00:54:18;;;;;;;;;;;;;;;10.48;63.18;100433.66;4964931;28;19934;-52
2022/09/19 00:56:51;;;;;;;;;;;;;;;10.46;63.29;100433.75;4961716;28;19944;-52
2022/09/19 00:59:18;;;;;;;;;;;;;;;10.45;63.29;100426.78;4965390;28;19922;-53
2022/09/19 01:01:44;;;;;;;;;;;;;;;10.44;63.25;100432.16;4961659;28;19968;-53
2022/09/19 01:04:19;;;;;;;;;;;;;;;10.42;63.25;100429.63;4962416;28;19931;-52
2022/09/19 01:06:51;;;;;;;;;;;;;;;10.42;63.39;100426.16;4963381;28;19919;-53
2022/09/19 01:09:25;;;;;;;;;;;;;;;10.41;63.35;100429.72;4962163;28;20362;-53
2022/09/19 01:12:16;;;;;;;;;;;;;;;10.39;63.41;100424.56;4963359;28;19933;-53
2022/09/19 01:14:53;;;;;;;;;;;;;;;10.39;63.54;100437.72;4961309;28;20394;-55
2022/09/19 01:17:23;;;;;;;;;;;;;;;10.39;63.44;100436.84;4959691;28;19949;-53
2022/09/19 01:20:07;;;;;;;;;;;;;;;10.37;63.60;100440.38;4962334;28;19938;-53
2022/09/19 01:22:51;;;;;;;;;;;;;;;10.36;63.62;100438.69;4957726;28;20013;-53
2022/09/19 01:25:31;;;;;;;;;;;;;;;10.38;63.47;100441.28;4962106;28;20317;-54
2022/09/19 01:28:10;;;;;;;;;;;;;;;10.37;63.59;100440.38;4959146;28;19922;-53
2022/09/19 01:30:38;;;;;;;;;;;;;;;10.36;63.53;100443.94;4956688;28;19972;-54
2022/09/19 01:33:18;;;;;;;;;;;;;;;10.32;63.88;100437.22;4959115;28;19930;-53
2022/09/19 01:35:47;;;;;;;;;;;;;;;10.30;63.87;100444.34;4964331;28;20373;-53
2022/09/19 01:38:24;;;;;;;;;;;;;;;10.31;63.92;100446.03;4959701;28;19926;-53
2022/09/19 01:40:51;;;;;;;;;;;;;;;10.30;63.79;100444.34;4961995;28;19925;-53
2022/09/19 01:43:17;;;;;;;;;;;;;;;10.30;63.96;100449.59;4965541;28;19922;-53
2022/09/19 01:45:43;;;;;;;;;;;;;;;10.30;63.94;100449.59;4962174;28;19926;-55
2022/09/19 01:48:11;;;;;;;;;;;;;;;10.31;64.00;100446.03;4963365;28;20453;-53
2022/09/19 01:50:46;;;;;;;;;;;;;;;10.31;64.06;100448.69;4962160;28;19937;-53
2022/09/19 01:53:21;;;;;;;;;;;;;;;10.32;63.86;100453.00;4962954;28;19930;-53
2022/09/19 01:55:55;;;;;;;;;;;;;;;10.32;63.94;100450.38;4963111;28;19922;-53
2022/09/19 01:58:40;;;;;;;;;;;;;;;10.30;64.01;100449.59;4960176;28;20432;-53
2022/09/19 02:01:16;;;;;;;;;;;;;;;10.29;64.06;100453.19;4963820;28;19925;-52
2022/09/19 02:03:48;;;;;;;;;;;;;;;10.29;64.10;100458.44;4960076;28;19934;-54
2022/09/19 02:06:22;;;;;;;;;;;;;;;10.29;64.14;100453.19;4962141;28;20020;-53
2022/09/19 02:08:54;;;;;;;;;;;;;;;10.31;64.26;100460.97;4963503;28;20341;-52
2022/09/19 02:11:21;;;;;;;;;;;;;;;10.32;64.17;100458.25;4960154;28;19922;-52
2022/09/19 02:14:17;;;;;;;;;;;;;;;10.33;64.19;100452.06;4954281;28;19922;-55
2022/09/19 02:17:03;;;;;;;;;;;;;;;10.35;64.04;100460.69;4952644;28;20386;-53
2022/09/19 02:19:32;;;;;;;;;;;;;;;10.36;64.13;100458.91;4956203;28;19985;-54
2022/09/19 02:22:01;;;;;;;;;;;;;;;10.35;64.03;100463.34;4959358;28;19922;-54
2022/09/19 02:24:28;;;;;;;;;;;;;;;10.34;64.06;100459.00;4963566;28;20503;-52
2022/09/19 02:27:01;;;;;;;;;;;;;;;10.35;64.29;100460.69;4962279;28;20341;-53
2022/09/19 02:29:30;;;;;;;;;;;;;;;10.35;64.06;100458.06;4963186;28;19933;-52
2022/09/19 02:31:56;;;;;;;;;;;;;;;10.33;64.23;100457.31;4962478;28;20012;-51
2022/09/19 02:34:21;;;;;;;;;;;;;;;10.33;64.29;100474.88;4967036;28;20000;-52
2022/09/19 02:36:50;;;;;;;;;;;;;;;10.34;64.26;100469.53;4966752;28;20433;-52
2022/09/19 02:39:27;;;;;;;;;;;;;;;10.34;64.40;100472.16;4969061;28;19926;-51
2022/09/19 02:42:02;;;;;;;;;;;;;;;10.36;64.34;100470.25;4964862;28;19948;-52
2022/09/19 02:44:37;;;;;;;;;;;;;;;10.37;64.37;100469.31;4964496;28;19933;-52
2022/09/19 02:47:02;;;;;;;;;;;;;;;10.39;64.35;100468.41;4963888;28;19929;-52
2022/09/19 02:49:56;;;;;;;;;;;;;;;10.37;64.28;100469.31;4966388;28;20311;-54
2022/09/19 02:52:26;;;;;;;;;;;;;;;10.36;64.29;100469.44;4957691;28;19926;-55
2022/09/19 02:54:54;;;;;;;;;;;;;;;10.35;64.38;100471.22;4964690;28;19926;-52
2022/09/19 02:57:22;;;;;;;;;;;;;;;10.35;64.58;100473.84;4970152;28;19960;-54
2022/09/19 02:59:49;;;;;;;;;;;;;;;10.35;64.42;100473.84;4966103;28;19918;-56
2022/09/19 03:02:21;;;;;;;;;;;;;;;10.37;64.41;100468.50;4966235;28;20134;-54
2022/09/19 03:04:50;;;;;;;;;;;;;;;10.37;64.74;100477.22;4969160;28;19918;-54
2022/09/19 03:07:27;;;;;;;;;;;;;;;10.39;64.53;100478.94;4965051;28;19929;-54
2022/09/19 03:10:12;;;;;;;;;;;;;;;10.40;64.67;100480.63;4967365;28;20306;-52
2022/09/19 03:12:47;;;;;;;;;;;;;;;10.40;64.60;100483.25;4966417;28;19930;-54
2022/09/19 03:15:13;;;;;;;;;;;;;;;10.42;64.76;100489.28;4965074;28;19922;-53
2022/09/19 03:17:43;;;;;;;;;;;;;;;10.45;64.62;100496.97;4964987;28;19922;-53
2022/09/19 03:20:11;;;;;;;;;;;;;;;10.45;64.65;100512.78;4966636;28;19934;-53
2022/09/19 03:22:37;;;;;;;;;;;;;;;10.47;64.78;100505.63;4966462;28;20298;-54
2022/09/19 03:25:02;;;;;;;;;;;;;;;10.49;64.65;100507.22;4960845;28;20024;-54
2022/09/19 03:27:28;;;;;;;;;;;;;;;10.51;64.73;100507.16;4961568;28;20072;-53
2022/09/19 03:29:53;;;;;;;;;;;;;;;10.50;64.85;100508.09;4964862;28;20008;-53
2022/09/19 03:32:27;;;;;;;;;;;;;;;10.50;64.88;100508.09;4961696;28;20464;-52
2022/09/19 03:34:55;;;;;;;;;;;;;;;10.50;64.93;100515.97;4966655;28;19926;-52
2022/09/19 03:37:21;;;;;;;;;;;;;;;10.52;65.08;100516.69;4961775;28;20424;-53
2022/09/19 03:39:46;;;;;;;;;;;;;;;10.53;64.96;100528.91;4960142;28;19930;-52
2022/09/19 03:42:12;;;;;;;;;;;;;;;10.55;65.02;100519.16;4960803;28;19918;-52
2022/09/19 03:44:38;;;;;;;;;;;;;;;10.57;65.09;100524.34;4966507;28;20410;-52
2022/09/19 03:47:04;;;;;;;;;;;;;;;10.58;65.28;100533.91;4966099;28;19960;-53
2022/09/19 03:49:30;;;;;;;;;;;;;;;10.56;64.95;100531.38;4965583;28;20408;-52
2022/09/19 03:51:55;;;;;;;;;;;;;;;10.60;65.06;100530.25;4968418;28;19930;-53
2022/09/19 03:54:20;;;;;;;;;;;;;;;10.61;65.30;100531.06;4962861;28;20053;-52
2022/09/19 03:56:46;;;;;;;;;;;;;;;10.61;65.20;100542.47;4962676;28;19925;-54
2022/09/19 03:59:11;;;;;;;;;;;;;;;10.60;65.38;100530.25;4963757;28;19926;-53
2022/09/19 04:01:36;;;;;;;;;;;;;;;10.58;65.62;100533.91;4962292;28;20276;-52
2022/09/19 04:04:02;;;;;;;;;;;;;;;10.61;65.53;100544.22;4958697;28;19922;-53
2022/09/19 04:06:28;;;;;;;;;;;;;;;10.63;65.63;100545.84;4963690;28;20342;-52
2022/09/19 04:08:53;;;;;;;;;;;;;;;10.64;65.80;100537.03;4962599;28;19922;-55
2022/09/19 04:11:19;;;;;;;;;;;;;;;10.64;65.69;100534.38;4967866;28;19964;-51
2022/09/19 04:13:44;;;;;;;;;;;;;;;10.67;65.85;100535.97;4964895;28;20492;-55
2022/09/19 04:16:10;;;;;;;;;;;;;;;10.70;65.82;100534.94;4963349;28;19938;-52
2022/09/19 04:18:39;;;;;;;;;;;;;;;10.70;65.78;100530.53;4966133;28;19929;-54
2022/09/19 04:21:04;;;;;;;;;;;;;;;10.71;65.90;100531.34;4969654;28;19922;-53
2022/09/19 04:23:30;;;;;;;;;;;;;;;10.73;65.78;100540.88;4961122;28;20317;-53
2022/09/19 04:25:55;;;;;;;;;;;;;;;10.75;66.01;100548.66;4961540;28;20020;-52
2022/09/19 04:28:21;;;;;;;;;;;;;;;10.75;65.82;100549.50;4963305;28;19922;-54
2022/09/19 04:30:47;;;;;;;;;;;;;;;10.76;65.92;100542.47;4963206;28;20404;-53
2022/09/19 04:33:13;;;;;;;;;;;;;;;10.73;66.12;100547.91;4966998;28;20383;-53
2022/09/19 04:35:39;;;;;;;;;;;;;;;10.70;66.34;100545.47;4961371;28;19918;-52
2022/09/19 04:38:08;;;;;;;;;;;;;;;10.68;65.95;100559.56;4961099;28;19933;-53
2022/09/19 04:40:41;;;;;;;;;;;;;;;10.70;66.32;100546.31;4959883;28;20454;-55
2022/09/19 04:43:08;;;;;;;;;;;;;;;10.70;66.10;100554.22;4953605;28;19926;-52
2022/09/19 04:45:34;;;;;;;;;;;;;;;10.70;66.31;100548.94;4963910;28;20448;-55
2022/09/19 04:47:59;;;;;;;;;;;;;;;10.70;66.27;100561.25;4966964;28;19922;-51
2022/09/19 04:50:25;;;;;;;;;;;;;;;10.68;66.17;100567.44;4962871;28;20425;-51
2022/09/19 04:52:51;;;;;;;;;;;;;;;10.67;66.36;100568.38;4964859;28;20374;-52
2022/09/19 04:55:16;;;;;;;;;;;;;;;10.70;66.29;100561.25;4960162;28;22563;-55
2022/09/19 04:57:42;;;;;;;;;;;;;;;10.69;66.45;100563.06;4962460;28;20455;-53
2022/09/19 05:00:08;;;;;;;;;;;;;;;10.70;66.46;100563.88;4974425;28;19923;-53
2022/09/19 05:02:34;;;;;;;;;;;;;;;10.70;66.52;100570.00;4957896;28;19934;-53
2022/09/19 05:05:00;;;;;;;;;;;;;;;10.73;66.55;100579.50;4966387;28;20469;-52
2022/09/19 05:07:33;;;;;;;;;;;;;;;10.73;66.37;100574.22;4961794;28;19922;-56
2022/09/19 05:09:58;;;;;;;;;;;;;;;10.75;66.61;100582.88;4949624;28;20361;-53
2022/09/19 05:12:24;;;;;;;;;;;;;;;10.77;66.74;100588.91;4958822;28;19949;-53
2022/09/19 05:14:49;;;;;;;;;;;;;;;10.76;66.63;100592.47;4962005;28;20850;-53
2022/09/19 05:17:14;;;;;;;;;;;;;;;10.76;66.61;100587.19;4949785;28;19930;-54
2022/09/19 05:19:40;;;;;;;;;;;;;;;10.77;66.89;100588.91;4956723;28;20382;-57
2022/09/19 05:22:05;;;;;;;;;;;;;;;10.75;66.95;100591.59;4955596;28;19932;-53
2022/09/19 05:24:30;;;;;;;;;;;;;;;10.79;66.84;100594.91;4960144;28;19978;-52
2022/09/19 05:26:59;;;;;;;;;;;;;;;10.79;66.92;100587.84;4960348;28;19922;-52
2022/09/19 05:29:24;;;;;;;;;;;;;;;10.81;66.75;100600.94;4952219;28;19941;-53
2022/09/19 05:31:50;;;;;;;;;;;;;;;10.83;67.05;100604.28;4952566;28;19930;-53
2022/09/19 05:34:15;;;;;;;;;;;;;;;10.86;67.12;100600.66;4958495;28;19941;-53
2022/09/19 05:36:41;;;;;;;;;;;;;;;10.85;67.12;100602.41;4955389;28;20313;-53
2022/09/19 05:39:07;;;;;;;;;;;;;;;10.88;67.13;100611.94;4959029;28;20017;-53
2022/09/19 05:41:32;;;;;;;;;;;;;;;10.93;67.28;100612.47;4963081;28;20057;-53
2022/09/19 05:43:58;;;;;;;;;;;;;;;10.96;67.32;100609.66;4967226;28;19929;-54
2022/09/19 05:46:23;;;;;;;;;;;;;;;11.02;67.21;100618.97;4965606;28;19918;-52
2022/09/19 05:48:49;;;;;;;;;;;;;;;11.04;67.28;100611.81;4965362;28;19933;-53
2022/09/19 05:51:14;;;;;;;;;;;;;;;11.07;67.25;100616.91;4966507;28;19933;-55
2022/09/19 05:53:57;;;;;;;;;;;;;;;11.08;67.26;100613.34;4960109;28;20382;-53
2022/09/19 05:56:23;;;;;;;;;;;;;;;11.10;67.37;100612.28;4965259;28;19922;-55
2022/09/19 05:58:51;;;;;;;;;;;;;;;11.12;67.57;100614.81;4964529;28;20366;-52
2022/09/19 06:01:16;;;;;;;;;;;;;;;11.13;67.65;100616.50;4964285;28;20326;-53
2022/09/19 06:03:43;;;;;;;;;;;;;;;11.14;67.64;100612.94;4964944;28;20437;-51
2022/09/19 06:06:11;;;;;;;;;;;;;;;11.17;67.83;100622.47;4959728;28;19973;-53
2022/09/19 06:08:38;;;;;;;;;;;;;;;11.19;67.71;100626.69;4960597;28;20282;-52
2022/09/19 06:11:03;;;;;;;;;;;;;;;11.22;67.76;100621.22;4962767;28;19918;-56
2022/09/19 06:14:13;;;;;;;;;;;;;;;11.26;67.87;100625.38;4965023;28;19933;-52
2022/09/19 06:16:13;;;;;;;;;;;;;;;11.31;67.90;100626.84;4966578;28;19926;-53
2022/09/19 06:18:39;;;;;;;;;;;;;;;11.31;68.05;100624.22;4967234;28;19934;-53
2022/09/19 06:21:04;;;;;;;;;;;;;;;11.34;68.05;100621.38;4966490;28;19930;-53
2022/09/19 06:23:29;;;;;;;;;;;;;;;11.34;68.01;100618.75;4963713;28;20290;-56
2022/09/19 06:25:55;;;;;;;;;;;;;;;11.36;68.27;100622.97;4965773;28;20595;-53
2022/09/19 06:28:20;;;;;;;;;;;;;;;11.39;68.42;100619.31;4965098;28;19922;-54
2022/09/19 06:30:45;;;;;;;;;;;;;;;11.43;68.28;100616.38;4965888;28;19981;-53
2022/09/19 06:33:11;;;;;;;;;;;;;;;11.45;68.31;100621.56;4967275;28;19938;-53
2022/09/19 06:35:37;;;;;;;;;;;;;;;11.45;68.63;100626.81;4969510;28;20275;-52
2022/09/19 06:38:04;;;;;;;;;;;;;;;11.48;68.81;100631.91;4966400;28;20056;-53
2022/09/19 06:40:30;;;;;;;;;;;;;;;11.51;68.69;100644.88;4967359;28;19958;-51
2022/09/19 06:43:01;;;;;;;;;;;;;;;11.53;68.73;100645.66;4964349;28;20701;-53
2022/09/19 06:45:27;;;;;;;;;;;;;;;11.54;68.95;100657.88;4968416;28;19918;-54
2022/09/19 06:47:59;;;;;;;;;;;;;;;11.50;69.63;100645.81;4964280;28;19976;-54
2022/09/19 06:50:25;;;;;;;;;;;;;;;11.49;69.99;100662.56;4965761;28;20041;-52
2022/09/19 06:52:50;;;;;;;;;;;;;;;11.50;69.86;100659.00;4967419;28;20588;-53
2022/09/19 06:55:15;;;;;;;;;;;;;;;11.50;70.38;100658.13;4968606;28;19930;-52
2022/09/19 06:57:41;;;;;;;;;;;;;;;11.49;70.78;100662.56;4966395;28;19926;-53
2022/09/19 07:00:06;;;;;;;;;;;;;;;11.52;70.64;100667.66;4965845;28;19928;-52
2022/09/19 07:02:31;;;;;;;;;;;;;;;11.55;70.67;100680.66;4965430;28;20170;-52
2022/09/19 07:04:57;;;;;;;;;;;;;;;11.59;70.96;100692.66;4966286;28;19926;-53
2022/09/19 07:07:23;;;;;;;;;;;;;;;11.62;71.14;100680.25;4967403;28;19937;-53
2022/09/19 07:09:48;;;;;;;;;;;;;;;11.63;71.12;100679.31;4970980;28;20004;-53
2022/09/19 07:12:14;;;;;;;;;;;;;;;11.66;71.37;100689.66;4968123;28;20016;-52
2022/09/19 07:14:41;;;;;;;;;;;;;;;11.70;71.67;100693.81;4966794;28;20205;-52
2022/09/19 07:17:06;;;;;;;;;;;;;;;11.76;71.44;100689.94;4969573;28;19926;-53
2022/09/19 07:19:31;;;;;;;;;;;;;;;11.82;71.50;100702.69;4967363;28;19938;-53
2022/09/19 07:21:57;;;;;;;;;;;;;;;11.85;71.61;100698.09;4970667;28;19953;-54
2022/09/19 07:24:22;;;;;;;;;;;;;;;11.92;71.63;100698.56;4969711;28;19926;-54
2022/09/19 07:26:47;;;;;;;;;;;;;;;11.96;71.66;100704.47;4968509;28;19926;-55
2022/09/19 07:29:13;;;;;;;;;;;;;;;12.00;71.91;100706.84;4970275;28;19923;-53
2022/09/19 07:31:38;;;;;;;;;;;;;;;12.06;71.76;100718.78;4967596;28;19922;-53
2022/09/19 07:34:04;;;;;;;;;;;;;;;12.11;71.95;100719.34;4969855;28;20338;-52
2022/09/19 07:36:29;;;;;;;;;;;;;;;12.17;71.85;100726.00;4969252;28;20386;-52
2022/09/19 07:38:55;;;;;;;;;;;;;;;12.24;71.99;100723.81;4970676;28;19937;-53
2022/09/19 07:41:20;;;;;;;;;;;;;;;12.30;72.06;100723.41;4967239;28;19976;-54
2022/09/19 07:43:47;;;;;;;;;;;;;;;12.35;71.77;100731.88;4967450;28;19926;-52
2022/09/19 07:46:14;;;;;;;;;;;;;;;12.39;72.03;100738.63;4968240;28;19941;-52
2022/09/19 07:48:41;;;;;;;;;;;;;;;12.43;72.05;100734.84;4964006;28;19989;-52
2022/09/19 07:51:07;;;;;;;;;;;;;;;12.46;72.20;100728.53;4967202;28;20485;-53
2022/09/19 07:53:32;;;;;;;;;;;;;;;12.52;72.31;100727.28;4967086;28;19934;-53
2022/09/19 07:55:57;;;;;;;;;;;;;;;12.58;72.26;100737.44;4969408;28;19922;-53
2022/09/19 07:58:24;;;;;;;;;;;;;;;12.65;72.17;100738.69;4968108;28;20420;-53
2022/09/19 08:00:50;;;;;;;;;;;;;;;12.71;72.29;100740.09;4964664;28;19918;-53
2022/09/19 08:03:16;;;;;;;;;;;;;;;12.77;72.04;100742.31;4964884;28;19922;-53
2022/09/19 08:05:43;;;;;;;;;;;;;;;12.85;72.02;100750.59;4966831;28;20494;-54
2022/09/19 08:08:10;;;;;;;;;;;;;;;12.93;72.21;100737.69;4968117;28;19922;-53
2022/09/19 08:10:36;;;;;;;;;;;;;;;13.01;72.30;100749.56;4965574;28;20390;-54
2022/09/19 08:13:05;;;;;;;;;;;;;;;13.09;71.92;100755.97;4965489;28;19937;-53
2022/09/19 08:15:33;;;;;;;;;;;;;;;13.19;72.05;100748.28;4967134;28;19929;-53
2022/09/19 08:18:02;;;;;;;;;;;;;;;13.31;71.86;100749.25;4965579;28;19927;-53
2022/09/19 08:20:31;;;;;;;;;;;;;;;13.42;71.31;100769.66;4966500;28;19922;-53
2022/09/19 08:22:57;;;;;;;;;;;;;;;13.52;71.28;100767.25;4967051;28;20382;-53
2022/09/19 08:25:25;;;;;;;;;;;;;;;13.58;71.03;100769.44;4967384;28;19929;-54
2022/09/19 08:27:51;;;;;;;;;;;;;;;13.62;71.09;100781.50;4967420;28;20012;-54
2022/09/19 08:30:17;;;;;;;;;;;;;;;13.66;70.65;100775.03;4968081;28;19969;-53
2022/09/19 08:32:46;;;;;;;;;;;;;;;13.68;70.58;100783.72;4968481;28;20492;-52
2022/09/19 08:35:12;;;;;;;;;;;;;;;13.70;70.61;100791.53;4969776;28;20294;-53
2022/09/19 08:37:37;;;;;;;;;;;;;;;13.72;70.38;100782.53;4964119;28;20386;-53
2022/09/19 08:40:19;;;;;;;;;;;;;;;13.75;70.38;100791.22;4969506;28;19934;-53
2022/09/19 08:42:56;;;;;;;;;;;;;;;13.80;70.22;100789.09;4969226;28;19930;-53
2022/09/19 08:45:28;;;;;;;;;;;;;;;13.84;70.04;100806.44;4966553;28;19933;-53
2022/09/19 08:47:55;;;;;;;;;;;;;;;13.86;70.08;100794.78;4968170;28;20110;-54
2022/09/19 08:50:24;;;;;;;;;;;;;;;13.92;69.78;100798.78;4967407;28;19977;-53
2022/09/19 08:52:52;;;;;;;;;;;;;;;13.96;69.73;100815.28;4967691;28;19926;-53
2022/09/19 08:55:21;;;;;;;;;;;;;;;13.98;69.61;100801.03;4967895;28;19933;-52
2022/09/19 08:58:00;;;;;;;;;;;;;;;14.03;69.39;100805.97;4967419;28;19926;-53
2022/09/19 09:00:29;;;;;;;;;;;;;;;14.04;69.42;100812.97;4966889;28;19926;-53
2022/09/19 09:02:57;;;;;;;;;;;;;;;14.08;69.47;100798.53;4967067;28;19926;-53
2022/09/19 09:05:22;;;;;;;;;;;;;;;14.13;69.33;100806.16;4967687;28;19926;-53
2022/09/19 09:07:51;;;;;;;;;;;;;;;14.16;69.23;100808.56;4964557;28;20294;-52
2022/09/19 09:10:31;;;;;;;;;;;;;;;14.21;69.07;100810.91;4966773;28;19933;-52
2022/09/19 09:13:04;;;;;;;;;;;;;;;14.23;69.10;100817.78;4966049;28;20028;-53
2022/09/19 09:15:42;;;;;;;;;;;;;;;14.26;68.98;100817.56;4963355;28;19957;-53
2022/09/19 09:18:07;;;;;;;;;;;;;;;14.27;68.88;100810.44;4963898;28;20373;-53
2022/09/19 09:20:36;;;;;;;;;;;;;;;14.27;68.85;100813.09;4966690;28;20397;-54
2022/09/19 09:23:04;;;;;;;;;;;;;;;14.30;68.94;100812.88;4962150;28;19977;-53
2022/09/19 09:25:31;;;;;;;;;;;;;;;14.36;69.04;100808.94;4969445;28;19922;-53
2022/09/19 09:28:18;;;;;;;;;;;;;;;14.42;68.95;100811.16;4966145;28;19940;-52
2022/09/19 09:30:47;;;;;;;;;;;;;;;14.47;68.84;100816.94;4967340;28;20173;-53
2022/09/19 09:33:21;;;;;;;;;;;;;;;14.52;68.77;100821.91;4966752;28;19922;-53
2022/09/19 09:35:48;;;;;;;;;;;;;;;14.54;68.48;100823.47;4968956;28;20776;-54
2022/09/19 09:38:31;;;;;;;;;;;;;;;14.61;68.37;100823.88;4964828;28;19934;-53
2022/09/19 09:44:14;;;;;;;;;;;;;;;14.70;68.24;100830.34;4966831;28;19980;-54
2022/09/19 09:46:58;;;;;;;;;;;;;;;14.74;68.15;100831.81;4968011;28;19926;-53
2022/09/19 09:49:28;;;;;;;;;;;;;;;14.79;67.90;100827.00;4968391;28;20041;-53
2022/09/19 09:51:56;;;;;;;;;;;;;;;14.81;67.63;100832.19;4964521;28;20357;-53
2022/09/19 09:57:21;;;;;;;;;;;;;;;14.83;67.40;100836.41;4964389;28;19961;-54
2022/09/19 10:05:37;;;;;;;;;;;;;;;14.94;67.13;100828.50;4967304;28;19993;-53
2022/09/19 10:08:03;;;;;;;;;;;;;;;15.02;67.03;100833.22;4967833;28;20032;-54
2022/09/19 10:10:30;;;;;;;;;;;;;;;15.08;66.93;100832.78;4965513;28;19922;-53
2022/09/19 10:13:19;;;;;;;;;;;;;;;15.12;66.94;100830.72;4965048;28;19936;-53
2022/09/19 10:15:46;;;;;;;;;;;;;;;15.16;66.82;100833.97;4966033;28;20313;-53
2022/09/19 10:18:14;;;;;;;;;;;;;;;15.19;66.83;100826.66;4965753;28;19928;-53
2022/09/19 10:20:49;;;;;;;;;;;;;;;15.23;66.77;100830.75;4967031;28;19921;-53
2022/09/19 10:23:21;;;;;;;;;;;;;;;15.27;66.67;100843.78;4967444;28;20209;-53
2022/09/19 10:25:48;;;;;;;;;;;;;;;15.29;66.60;100836.56;4965845;28;20471;-53
2022/09/19 10:28:22;;;;;;;;;;;;;;;15.31;66.53;100835.47;4967857;28;19969;-53
2022/09/19 10:30:59;;;;;;;;;;;;;;;15.36;66.29;100832.44;4967647;28;20310;-53
2022/09/19 10:33:44;;;;;;;;;;;;;;;15.42;65.89;100836.47;4963797;28;19926;-53
2022/09/19 10:36:20;;;;;;;;;;;;;;;15.49;65.43;100843.84;4965896;28;19925;-53
2022/09/19 10:38:53;;;;;;;;;;;;;;;15.57;64.73;100858.28;4967325;28;20298;-53
2022/09/19 10:41:20;;;;;;;;;;;;;;;15.59;63.38;100849.25;4965689;28;19930;-53
2022/09/19 10:43:49;;;;;;;;;;;;;;;15.67;63.06;100853.97;4966826;28;19969;-54
2022/09/19 10:46:20;;;;;;;;;;;;;;;15.72;62.84;100851.81;4971307;28;19977;-53
2022/09/19 10:48:58;;;;;;;;;;;;;;;15.76;62.41;100842.66;4968631;28;19918;-55
2022/09/19 10:51:35;;;;;;;;;;;;;;;15.79;62.63;100844.19;4970791;28;19918;-53
2022/09/19 10:54:09;;;;;;;;;;;;;;;15.82;62.65;100843.97;4970075;28;19933;-53
2022/09/19 10:56:34;;;;;;;;;;;;;;;15.85;62.23;100843.78;4969989;28;19973;-53
2022/09/19 10:59:14;;;;;;;;;;;;;;;15.87;62.08;100841.84;4970308;28;19922;-53
2022/09/19 11:01:40;;;;;;;;;;;;;;;15.92;62.32;100849.44;4967721;28;20465;-53
2022/09/19 11:04:22;;;;;;;;;;;;;;;15.97;61.96;100852.56;4971364;28;19957;-53
2022/09/19 11:06:57;;;;;;;;;;;;;;;16.00;61.58;100857.63;4971275;28;19932;-53
2022/09/19 11:09:27;;;;;;;;;;;;;;;16.02;61.24;100850.38;4971796;28;19930;-53
2022/09/19 11:12:01;;;;;;;;;;;;;;;16.04;61.17;100853.75;4967609;28;20406;-53
2022/09/19 11:14:37;;;;;;;;;;;;;;;16.08;61.19;100860.53;4968930;28;20005;-53
2022/09/19 11:17:05;;;;;;;;;;;;;;;16.09;61.06;100851.59;4970367;28;19926;-54
2022/09/19 11:19:33;;;;;;;;;;;;;;;16.12;61.19;100854.00;4967215;28;19925;-55
2022/09/19 11:22:07;;;;;;;;;;;;;;;16.14;60.96;100849.41;4965579;28;19918;-54
2022/09/19 11:24:33;;;;;;;;;;;;;;;16.18;60.85;100854.47;4968205;28;19926;-53
2022/09/19 11:27:04;;;;;;;;;;;;;;;16.19;60.66;100862.31;4967870;28;19926;-53
2022/09/19 11:29:32;;;;;;;;;;;;;;;16.22;60.44;100863.91;4965466;28;19973;-54
2022/09/19 11:32:07;;;;;;;;;;;;;;;16.25;60.20;100861.00;4968426;28;20406;-53
2022/09/19 11:34:36;;;;;;;;;;;;;;;16.25;59.93;100861.81;4970043;28;20043;-53
2022/09/19 11:37:25;;;;;;;;;;;;;;;16.28;59.44;100871.34;4967697;28;20017;-54
2022/09/19 11:40:04;;;;;;;;;;;;;;;16.29;59.64;100865.06;4968735;28;20877;-53
2022/09/19 11:42:44;;;;;;;;;;;;;;;16.34;59.40;100868.22;4967134;28;19918;-54
2022/09/19 11:45:11;;;;;;;;;;;;;;;16.41;59.24;100866.72;4968426;28;19929;-56
2022/09/19 11:47:37;;;;;;;;;;;;;;;16.50;58.83;100864.31;4969847;28;19940;-53
2022/09/19 11:50:02;;;;;;;;;;;;;;;16.54;58.20;100860.47;4970432;28;20586;-53
2022/09/19 11:52:48;;;;;;;;;;;;;;;16.55;58.19;100856.84;4967972;28;20030;-54
2022/09/19 11:55:34;;;;;;;;;;;;;;;16.59;58.09;100859.13;4938685;28;19954;-53
2022/09/19 11:58:18;;;;;;;;;;;;;;;16.62;58.14;100860.66;4968143;28;19926;-53
2022/09/19 12:00:46;;;;;;;;;;;;;;;16.65;58.12;100868.38;4968768;28;20052;-53
2022/09/19 12:03:30;;;;;;;;;;;;;;;16.67;58.01;100860.28;4964477;28;20195;-53
2022/09/19 12:05:58;;;;;;;;;;;;;;;16.71;58.12;100861.72;4968606;28;19926;-53
2022/09/19 12:08:30;;;;;;;;;;;;;;;16.73;58.29;100852.66;4969105;28;19929;-54
2022/09/19 12:11:14;;;;;;;;;;;;;;;16.79;58.13;100863.75;4968316;28;20386;-54
2022/09/19 12:13:46;;;;;;;;;;;;;;;16.82;57.60;100855.53;4967053;28;20383;-54
2022/09/19 12:16:17;;;;;;;;;;;;;;;16.84;57.65;100853.59;4965522;28;19926;-54
2022/09/19 12:18:50;;;;;;;;;;;;;;;16.85;57.62;100853.47;4965211;28;19926;-54
2022/09/19 12:21:18;;;;;;;;;;;;;;;16.88;57.36;100860.31;4964741;28;20488;-53
2022/09/19 12:26:32;;;;;;;;;;;;;;;16.88;56.79;100852.34;4967856;28;19977;-53
2022/09/19 12:29:19;;;;;;;;;;;;;;;16.87;56.70;100867.47;4967947;28;19922;-53
2022/09/19 12:31:47;;;;;;;;;;;;;;;16.82;53.46;100869.66;4967302;28;20285;-54
2022/09/19 12:34:35;;;;;;;;;;;;;;;16.69;54.18;100884.91;4968240;28;19922;-54
2022/09/19 12:37:36;;;;;;;;;;;;;;;16.44;54.49;100882.44;4952225;28;21522;-55
2022/09/19 12:40:13;;;;;;;;;;;;;;;16.27;55.27;100904.16;4899464;29;19930;-53
2022/09/19 12:42:52;;;;;;;;;;;;;;;16.12;55.97;100899.13;4947783;28;20385;-55
2022/09/19 12:45:20;;;;;;;;;;;;;;;16.00;56.55;100895.63;4962575;28;19922;-54
2022/09/19 12:48:23;;;;;;;;;;;;;;;15.93;57.04;100901.53;4963581;28;19921;-54
2022/09/19 12:50:54;;;;;;;;;;;;;;;15.85;57.63;100912.75;4890112;29;19926;-53
2022/09/19 12:53:26;;;;;;;;;;;;;;;15.83;58.05;100919.94;4949648;28;19933;-54
2022/09/19 12:55:56;;;;;;;;;;;;;;;15.83;58.38;100925.25;4961995;28;19918;-52
2022/09/19 12:58:27;;;;;;;;;;;;;;;15.85;58.61;100931.31;4947065;28;19956;-54
2022/09/19 13:01:11;;;;;;;;;;;;;;;15.88;58.55;100930.25;4958956;28;20354;-54
2022/09/19 13:03:40;;;;;;;;;;;;;;;15.93;58.73;100930.72;4957164;28;19922;-53
2022/09/19 13:06:11;;;;;;;;;;;;;;;15.97;58.78;100933.03;4970152;28;19948;-53